createdAt,value
2022-10-17T00:03:39.570Z,100.00
2022-10-17T00:08:42.805Z,100.00
2022-10-17T00:13:45.710Z,100.00
2022-10-17T00:18:47.285Z,100.00
2022-10-17T00:23:49.186Z,100.00
2022-10-17T00:28:52.053Z,100.00
2022-10-17T00:33:53.948Z,100.00
2022-10-17T00:38:58.530Z,100.00
2022-10-17T00:44:03.566Z,100.00
2022-10-17T00:49:08.947Z,100.00
2022-10-17T00:54:13.432Z,100.00
2022-10-17T00:59:17.447Z,100.00
2022-10-17T01:04:19.550Z,100.00
2022-10-17T01:09:21.437Z,100.00
2022-10-17T01:14:32.860Z,100.00
2022-10-17T01:19:49.951Z,100.00
2022-10-17T01:25:20.888Z,100.00
2022-10-17T01:30:26.491Z,100.00
2022-10-17T01:35:38.099Z,100.00
2022-10-17T01:40:48.425Z,100.00
2022-10-17T01:45:52.889Z,100.00
2022-10-17T01:51:02.116Z,100.00
2022-10-17T01:56:07.912Z,100.00
2022-10-17T02:01:12.390Z,100.00
2022-10-17T02:06:14.070Z,100.00
2022-10-17T02:11:22.884Z,100.00
2022-10-17T02:16:33.904Z,100.00
2022-10-17T02:21:49.785Z,100.00
2022-10-17T02:26:51.398Z,100.00
2022-10-17T02:32:17.869Z,100.00
2022-10-17T02:37:25.686Z,100.00
2022-10-17T02:42:29.466Z,100.00
2022-10-17T02:47:57.350Z,100.00
2022-10-17T02:53:05.805Z,100.00
2022-10-17T02:58:13.476Z,100.00
2022-10-17T03:03:23.722Z,100.00
2022-10-17T03:08:26.099Z,100.00
2022-10-17T03:13:28.531Z,100.00
2022-10-17T03:18:30.328Z,100.00
2022-10-17T03:23:35.242Z,100.00
2022-10-17T03:28:38.845Z,100.00
2022-10-17T03:33:40.695Z,100.00
2022-10-17T03:38:44.120Z,100.00
2022-10-17T03:43:45.843Z,100.00
2022-10-17T03:48:47.469Z,100.00
2022-10-17T03:53:49.138Z,100.00
2022-10-17T03:58:51.247Z,100.00
2022-10-17T04:03:56.106Z,100.00
2022-10-17T04:08:57.893Z,100.00
2022-10-17T04:14:03.253Z,100.00
2022-10-17T04:19:05.558Z,100.00
2022-10-17T04:24:15.412Z,100.00
2022-10-17T04:29:21.775Z,100.00
2022-10-17T04:34:25.827Z,100.00
2022-10-17T04:39:27.573Z,100.00
2022-10-17T04:44:31.082Z,100.00
2022-10-17T04:49:33.626Z,100.00
2022-10-17T04:54:42.909Z,100.00
2022-10-17T04:59:45.706Z,100.00
2022-10-17T05:04:56.273Z,100.00
2022-10-17T05:09:58.849Z,100.00
2022-10-17T05:15:00.737Z,100.00
2022-10-17T05:20:04.174Z,100.00
2022-10-17T05:25:08.448Z,100.00
2022-10-17T05:30:10.422Z,100.00
2022-10-17T05:35:13.456Z,100.00
2022-10-17T05:40:16.501Z,100.00
2022-10-17T05:45:18.634Z,100.00
2022-10-17T05:50:22.069Z,100.00
2022-10-17T05:55:35.947Z,100.00
2022-10-17T06:00:37.635Z,100.00
2022-10-17T06:05:39.885Z,100.00
2022-10-17T06:10:41.557Z,100.00
2022-10-17T06:15:43.411Z,100.00
2022-10-17T06:20:46.084Z,100.00
2022-10-17T06:25:50.378Z,100.00
2022-10-17T06:30:52.059Z,100.00
2022-10-17T06:35:55.821Z,100.00
2022-10-17T06:41:11.165Z,100.00
2022-10-17T06:46:17.497Z,100.00
2022-10-17T06:51:29.172Z,100.00
2022-10-17T06:56:33.306Z,100.00
2022-10-17T07:02:02.196Z,100.00
2022-10-17T07:07:05.162Z,100.00
2022-10-17T07:12:09.136Z,100.00
2022-10-17T07:17:11.473Z,100.00
2022-10-17T07:22:13.658Z,100.00
2022-10-17T07:27:19.011Z,100.00
2022-10-17T07:32:21.757Z,100.00
2022-10-17T07:37:23.489Z,100.00
2022-10-17T07:42:29.446Z,100.00
2022-10-17T07:47:32.068Z,100.00
2022-10-17T07:52:35.135Z,100.00
2022-10-17T07:57:36.773Z,100.00
2022-10-17T08:02:38.444Z,100.00
2022-10-17T08:07:41.424Z,100.00
2022-10-17T08:12:43.417Z,100.00
2022-10-17T08:17:44.952Z,100.00
2022-10-17T08:22:52.478Z,100.00
2022-10-17T08:27:54.132Z,100.00
2022-10-17T08:32:56.356Z,100.00
2022-10-17T08:38:01.553Z,100.00
2022-10-17T08:43:35.201Z,100.00
2022-10-17T08:48:45.611Z,100.00
2022-10-17T08:53:55.816Z,100.00
2022-10-17T08:58:58.239Z,100.00
2022-10-17T09:04:15.923Z,100.00
2022-10-17T09:09:41.160Z,100.00
2022-10-17T09:15:02.807Z,100.00
2022-10-17T09:20:19.428Z,100.00
2022-10-17T09:25:21.933Z,100.00
2022-10-17T09:30:44.550Z,100.00
2022-10-17T09:35:48.633Z,100.00
2022-10-17T09:41:00.638Z,100.00
2022-10-17T09:46:37.289Z,100.00
2022-10-17T09:51:39.373Z,100.00
2022-10-17T09:57:02.691Z,100.00
2022-10-17T10:02:09.470Z,100.00
2022-10-17T10:07:12.378Z,100.00
2022-10-17T10:12:23.797Z,100.00
2022-10-17T10:17:37.304Z,100.00
2022-10-17T10:22:38.980Z,100.00
2022-10-17T10:27:42.750Z,100.00
2022-10-17T10:32:46.904Z,100.00
2022-10-17T10:37:52.931Z,100.00
2022-10-17T10:43:02.537Z,100.00
2022-10-17T10:48:16.517Z,100.00
2022-10-17T10:53:24.883Z,100.00
2022-10-17T10:58:47.924Z,88.96
2022-10-17T11:03:58.444Z,85.40
2022-10-17T11:09:13.025Z,85.88
2022-10-17T11:14:24.781Z,80.16
2022-10-17T11:19:44.559Z,74.17
2022-10-17T11:25:00.819Z,78.31
2022-10-17T11:30:03.882Z,70.96
2022-10-17T11:35:30.639Z,73.01
2022-10-17T11:40:36.152Z,65.49
2022-10-17T11:45:45.270Z,63.06
2022-10-17T11:56:33.329Z,50.00
2022-10-17T12:02:01.754Z,44.07
2022-10-17T12:07:30.086Z,47.83
2022-10-17T12:12:34.650Z,51.13
2022-10-17T12:17:41.195Z,49.46
2022-10-17T12:23:12.098Z,48.36
2022-10-17T12:28:18.982Z,47.38
2022-10-17T12:33:23.542Z,47.56
2022-10-17T12:38:27.160Z,44.88
2022-10-17T12:43:28.807Z,44.84
2022-10-17T12:48:33.173Z,42.45
2022-10-17T12:53:49.943Z,40.35
2022-10-17T12:58:52.053Z,41.62
2022-10-17T13:03:55.070Z,42.58
2022-10-17T13:09:08.765Z,42.24
2022-10-17T13:14:16.453Z,40.04
2022-10-17T13:19:24.682Z,46.20
2022-10-17T13:24:40.534Z,50.84
2022-10-17T13:29:44.454Z,56.11
2022-10-17T13:34:46.010Z,59.99
2022-10-17T13:40:00.309Z,64.93
2022-10-17T13:45:25.375Z,76.99
2022-10-17T13:50:48.663Z,70.97
2022-10-17T13:56:09.552Z,75.84
2022-10-17T14:01:19.204Z,73.05
2022-10-17T14:06:23.634Z,73.43
2022-10-17T14:11:38.157Z,71.75
2022-10-17T14:16:42.504Z,70.25
2022-10-17T14:21:48.867Z,73.35
2022-10-17T14:26:59.498Z,77.89
2022-10-17T14:32:03.052Z,79.86
2022-10-17T14:37:41.368Z,88.92
2022-10-17T14:42:43.678Z,89.58
2022-10-17T14:47:49.899Z,87.10
2022-10-17T14:53:23.566Z,99.27
2022-10-17T14:58:27.960Z,100.00
2022-10-17T15:03:29.674Z,100.00
2022-10-17T15:08:31.346Z,100.00
2022-10-17T15:13:39.954Z,100.00
2022-10-17T15:18:43.848Z,100.00
2022-10-17T15:23:45.464Z,100.00
2022-10-17T15:28:47.805Z,100.00
2022-10-17T15:33:49.943Z,100.00
2022-10-17T15:38:53.496Z,100.00
2022-10-17T15:43:55.534Z,100.00
2022-10-17T15:49:02.443Z,100.00
2022-10-17T15:54:05.694Z,100.00
2022-10-17T15:59:14.093Z,100.00
2022-10-17T16:04:15.966Z,100.00
2022-10-17T16:09:17.550Z,100.00
2022-10-17T16:14:19.214Z,100.00
2022-10-17T16:19:21.775Z,100.00
2022-10-17T16:24:24.514Z,100.00
2022-10-17T16:29:26.168Z,100.00
2022-10-17T16:34:30.685Z,100.00
2022-10-17T16:39:32.332Z,100.00
2022-10-17T16:44:34.074Z,100.00
2022-10-17T16:49:35.653Z,100.00
2022-10-17T16:54:37.305Z,100.00
2022-10-17T16:59:38.912Z,100.00
2022-10-17T17:04:40.560Z,100.00
2022-10-17T17:09:42.125Z,100.00
2022-10-17T17:14:43.712Z,100.00
2022-10-17T17:19:45.248Z,100.00
2022-10-17T17:24:46.853Z,100.00
2022-10-17T17:29:48.509Z,100.00
2022-10-17T17:34:50.131Z,100.00
2022-10-17T17:39:51.699Z,100.00
2022-10-17T17:44:53.441Z,100.00
2022-10-17T17:49:55.021Z,100.00
2022-10-17T17:54:56.567Z,100.00
2022-10-17T17:59:58.111Z,100.00
2022-10-17T18:04:59.670Z,100.00
2022-10-17T18:10:01.230Z,100.00
2022-10-17T18:15:04.410Z,100.00
2022-10-17T18:20:07.162Z,100.00
2022-10-17T18:25:08.945Z,100.00
2022-10-17T18:30:10.755Z,100.00
2022-10-17T18:35:12.318Z,100.00
2022-10-17T18:40:13.842Z,100.00
2022-10-17T18:45:15.703Z,100.00
2022-10-17T18:50:17.376Z,100.00
2022-10-17T18:55:20.535Z,100.00
2022-10-17T19:00:22.105Z,100.00
2022-10-17T19:05:23.670Z,100.00
2022-10-17T19:10:25.729Z,100.00
2022-10-17T19:15:27.326Z,100.00
2022-10-17T19:20:29.184Z,100.00
2022-10-17T19:25:30.881Z,100.00
2022-10-17T19:30:32.521Z,100.00
2022-10-17T19:35:34.883Z,100.00
2022-10-17T19:40:40.934Z,100.00
2022-10-17T19:45:42.536Z,100.00
2022-10-17T19:50:44.692Z,100.00
2022-10-17T19:55:46.314Z,100.00
2022-10-17T20:00:49.593Z,100.00
2022-10-17T20:05:51.449Z,100.00
2022-10-17T20:10:52.999Z,100.00
2022-10-17T20:15:55.948Z,100.00
2022-10-17T20:21:03.033Z,100.00
2022-10-17T20:26:33.254Z,100.00
2022-10-17T20:31:40.373Z,100.00
2022-10-17T20:36:42.072Z,100.00
2022-10-17T20:41:44.969Z,100.00
2022-10-17T20:47:00.820Z,100.00
2022-10-17T20:52:03.544Z,100.00
2022-10-17T20:57:05.794Z,100.00
2022-10-17T21:02:10.616Z,100.00
2022-10-17T21:07:12.171Z,100.00
2022-10-17T21:12:21.622Z,100.00
2022-10-17T21:17:32.886Z,100.00
2022-10-17T21:22:35.014Z,100.00
2022-10-17T21:27:36.578Z,100.00
2022-10-17T21:32:51.131Z,100.00
2022-10-17T21:37:55.832Z,100.00
2022-10-17T21:42:57.368Z,100.00
2022-10-17T21:48:12.535Z,100.00
2022-10-17T21:53:14.576Z,100.00
2022-10-17T21:58:16.220Z,100.00
2022-10-17T22:03:17.780Z,100.00
2022-10-17T22:08:19.332Z,100.00
2022-10-17T22:13:20.921Z,100.00
2022-10-17T22:18:22.488Z,100.00
2022-10-17T22:23:24.980Z,100.00
2022-10-17T22:28:26.624Z,100.00
2022-10-17T22:33:28.533Z,100.00
2022-10-17T22:38:30.372Z,100.00
2022-10-17T22:43:32.648Z,100.00
2022-10-17T22:48:34.479Z,100.00
2022-10-17T22:53:37.668Z,100.00
2022-10-17T22:58:39.746Z,100.00
2022-10-17T23:03:41.571Z,100.00
2022-10-17T23:08:43.663Z,100.00
2022-10-17T23:13:45.460Z,100.00
2022-10-17T23:18:47.225Z,100.00
2022-10-17T23:23:48.958Z,100.00
2022-10-17T23:28:54.599Z,100.00
2022-10-17T23:33:56.416Z,100.00
2022-10-17T23:38:58.700Z,100.00
2022-10-17T23:44:00.582Z,100.00
2022-10-17T23:49:02.363Z,100.00
2022-10-17T23:54:04.827Z,100.00
2022-10-17T23:59:06.564Z,100.00
